Terminal Aerodrome Forecast
Issued by NWS

Home | Current Version | Previous Version | Text Only | Print | Product List | Glossary On
Versions: 1 2 3 4 5 6 7 8 9 10 11 12 13 14 15 16 17 18 19 20 21
139
FTUS43 KILX 282320
TAFDEC
TAF
KDEC 282320Z 2900/2924 30011KT P6SM FEW070
     FM290200 26007KT P6SM FEW200
     FM291600 26011KT P6SM SCT110
     FM292000 27012G22KT P6SM VCTS SCT045CB=

USA.gov is the U.S. government's official web portal to all federal, state and local government web resources and services.